createdAt,value
2022-07-25T10:30:36.872Z,50.10
2022-07-25T10:33:25.220Z,50.70
2022-07-25T10:35:52.563Z,50.00
2022-07-25T10:38:28.307Z,49.90
2022-07-25T10:41:00.974Z,49.60
2022-07-25T10:43:29.311Z,49.10
2022-07-25T10:46:00.187Z,49.30
2022-07-25T10:48:32.914Z,49.40
2022-07-25T10:51:12.049Z,49.40
2022-07-25T10:53:39.117Z,48.80
2022-07-25T10:56:10.615Z,48.80
2022-07-25T10:58:56.656Z,48.00
2022-07-25T11:01:32.293Z,48.30
2022-07-25T11:04:15.922Z,48.20
2022-07-25T11:06:43.670Z,47.40
2022-07-25T11:09:18.476Z,47.90
2022-07-25T11:11:49.459Z,47.00
2022-07-25T11:14:21.058Z,46.80
2022-07-25T11:16:50.624Z,46.90
2022-07-25T11:19:20.837Z,46.30
2022-07-25T11:21:50.956Z,46.10
2022-07-25T11:24:18.541Z,46.20
2022-07-25T11:26:46.547Z,46.20
2022-07-25T11:29:29.660Z,46.30
2022-07-25T11:32:03.187Z,46.70
2022-07-25T11:34:33.944Z,46.90
2022-07-25T11:37:05.827Z,47.90
2022-07-25T11:39:35.747Z,48.20
2022-07-25T11:42:27.547Z,48.20
2022-07-25T11:44:54.982Z,48.30
2022-07-25T11:47:31.918Z,48.50
2022-07-25T11:50:11.238Z,50.10
2022-07-25T11:52:38.671Z,50.30
2022-07-25T11:55:08.715Z,49.80
2022-07-25T11:57:39.147Z,48.70
2022-07-25T12:00:15.301Z,48.00
2022-07-25T12:02:42.877Z,48.20
2022-07-25T12:05:11.492Z,48.70
2022-07-25T12:07:45.338Z,48.30
2022-07-25T12:10:33.875Z,48.30
2022-07-25T12:13:03.962Z,48.10
2022-07-25T12:15:39.977Z,47.80
2022-07-25T12:18:12.614Z,47.90
2022-07-25T12:20:43.170Z,48.10
2022-07-25T12:23:13.561Z,49.10
2022-07-25T12:25:43.328Z,49.40
2022-07-25T12:28:11.756Z,49.90
2022-07-25T12:30:40.350Z,50.60
2022-07-25T12:33:07.676Z,51.20
2022-07-25T12:35:37.580Z,51.30
2022-07-25T12:38:05.419Z,52.20
2022-07-25T12:40:33.262Z,53.40
2022-07-25T12:43:01.379Z,54.90
2022-07-25T12:45:28.567Z,56.10
2022-07-25T12:47:56.439Z,57.20
2022-07-25T12:50:26.073Z,57.90
2022-07-25T12:52:54.237Z,58.50
2022-07-25T12:55:22.303Z,59.00
2022-07-25T12:57:49.900Z,59.10
2022-07-25T13:00:22.462Z,59.90
2022-07-25T13:02:52.244Z,60.90
2022-07-25T13:05:20.256Z,61.40
2022-07-25T13:07:49.107Z,61.30
2022-07-25T13:10:19.446Z,62.30
2022-07-25T13:15:15.636Z,63.30
2022-07-25T13:17:42.922Z,65.10
2022-07-25T13:20:11.102Z,65.10
2022-07-25T13:22:38.751Z,64.60
2022-07-25T13:25:06.636Z,64.70
2022-07-25T13:27:33.922Z,64.00
2022-07-25T13:30:01.088Z,64.30
2022-07-25T13:32:28.624Z,64.50
2022-07-25T13:34:55.885Z,64.70
2022-07-25T13:37:23.261Z,65.20
2022-07-25T13:39:50.492Z,65.30
2022-07-25T13:42:17.693Z,65.90
2022-07-25T13:44:45.151Z,66.40
2022-07-25T13:47:12.353Z,66.70
2022-07-25T13:49:40.759Z,67.10
2022-07-25T13:52:08.143Z,67.50
2022-07-25T13:54:35.404Z,68.10
2022-07-25T13:57:03.632Z,68.20
2022-07-25T13:59:30.848Z,68.30
2022-07-25T14:01:58.024Z,68.20
2022-07-25T14:04:25.381Z,68.10
2022-07-25T14:06:52.519Z,68.00
2022-07-25T14:09:24.135Z,67.20
2022-07-25T14:11:51.518Z,66.90
2022-07-25T14:16:46.448Z,66.40
2022-07-25T14:19:13.663Z,67.60
2022-07-25T14:21:40.977Z,67.50
2022-07-25T14:24:08.514Z,68.20
2022-07-25T14:26:35.952Z,68.40
2022-07-25T14:29:04.376Z,68.60
2022-07-25T14:31:33.124Z,68.20
2022-07-25T14:34:00.346Z,69.30
2022-07-25T14:36:28.072Z,69.00
2022-07-25T14:38:55.235Z,69.10
2022-07-25T14:41:22.474Z,69.90
2022-07-25T14:43:49.807Z,69.70
2022-07-25T14:46:17.058Z,69.40
2022-07-25T14:48:44.521Z,69.30
2022-07-25T14:51:11.726Z,68.80
2022-07-25T14:53:39.328Z,69.20
2022-07-25T14:56:07.034Z,69.40
2022-07-25T14:58:34.633Z,70.10
2022-07-25T15:01:02.298Z,69.90
2022-07-25T15:03:29.534Z,70.30
2022-07-25T15:05:56.912Z,71.00
2022-07-25T15:08:24.152Z,71.60
2022-07-25T15:13:34.180Z,71.60
2022-07-25T15:16:02.340Z,71.70
2022-07-25T15:18:29.572Z,71.80
2022-07-25T15:20:57.053Z,71.70
2022-07-25T15:23:25.545Z,72.10
2022-07-25T15:26:01.865Z,71.60
2022-07-25T15:28:32.393Z,72.10
2022-07-25T15:30:59.781Z,71.90
2022-07-25T15:33:27.049Z,72.60
2022-07-25T15:35:55.037Z,72.70
2022-07-25T15:38:22.608Z,73.30
2022-07-25T15:40:49.803Z,73.50
2022-07-25T15:43:17.008Z,74.00
2022-07-25T15:45:46.287Z,74.20
2022-07-25T15:48:15.506Z,73.90
2022-07-25T15:50:46.381Z,73.10
2022-07-25T15:53:14.460Z,73.40
2022-07-25T15:55:42.385Z,73.50
2022-07-25T15:58:10.796Z,73.80
2022-07-25T16:00:39.443Z,73.90
2022-07-25T16:03:06.972Z,73.90
2022-07-25T16:05:34.500Z,74.10
2022-07-25T16:08:02.386Z,74.30
2022-07-25T16:10:31.815Z,74.50
2022-07-25T16:12:59.433Z,74.80
2022-07-25T16:15:26.628Z,75.00
2022-07-25T16:18:01.790Z,75.50
2022-07-25T16:20:31.683Z,75.90
2022-07-25T16:22:59.713Z,75.80
2022-07-25T16:25:28.853Z,76.20
2022-07-25T16:27:56.798Z,76.40
2022-07-25T16:30:24.005Z,76.70
2022-07-25T16:32:51.321Z,76.70
2022-07-25T16:35:18.609Z,77.10
2022-07-25T16:37:45.958Z,76.90
2022-07-25T16:40:14.588Z,77.00
2022-07-25T16:42:42.228Z,77.30
2022-07-25T16:45:09.962Z,76.90
2022-07-25T16:47:37.590Z,77.50
2022-07-25T16:50:05.212Z,77.60
2022-07-25T16:52:32.344Z,77.20
2022-07-25T16:54:59.639Z,77.50
2022-07-25T16:57:26.909Z,76.80
2022-07-25T16:59:54.085Z,77.50
2022-07-25T17:02:27.562Z,77.70
2022-07-25T17:04:56.823Z,77.40
2022-07-25T17:07:24.443Z,76.50
2022-07-25T17:09:52.132Z,76.80
2022-07-25T17:12:19.609Z,76.90
2022-07-25T17:14:46.827Z,77.10
2022-07-25T17:17:14.233Z,77.10
2022-07-25T17:19:41.408Z,77.20
2022-07-25T17:22:09.559Z,77.20
2022-07-25T17:24:36.983Z,77.30
2022-07-25T17:27:04.733Z,77.80
2022-07-25T17:29:32.053Z,78.00
2022-07-25T17:31:59.243Z,78.00
2022-07-25T17:34:27.171Z,78.30
2022-07-25T17:36:55.220Z,79.10
2022-07-25T17:39:22.408Z,79.90
2022-07-25T17:41:52.583Z,80.80
2022-07-25T17:44:20.362Z,82.10
2022-07-25T17:46:50.244Z,83.10
2022-07-25T17:51:45.319Z,83.50
2022-07-25T17:54:12.602Z,83.40
2022-07-25T17:59:08.749Z,83.90
2022-07-25T18:01:36.461Z,84.80
2022-07-25T18:04:04.301Z,85.20
2022-07-25T18:06:31.878Z,85.50
2022-07-25T18:08:59.201Z,85.50
2022-07-25T18:11:26.753Z,85.70
2022-07-25T18:13:53.841Z,86.00
2022-07-25T18:16:21.215Z,86.00
2022-07-25T18:18:48.506Z,86.00
2022-07-25T18:21:15.614Z,86.40
2022-07-25T18:23:42.772Z,86.40
2022-07-25T18:26:10.358Z,86.20
2022-07-25T18:28:37.680Z,86.60
2022-07-25T18:31:05.765Z,86.80
2022-07-25T18:33:32.990Z,86.70
2022-07-25T18:36:04.134Z,87.10
2022-07-25T18:38:34.919Z,86.90
2022-07-25T18:41:27.548Z,87.30
2022-07-25T18:43:51.006Z,87.70
2022-07-25T18:46:18.645Z,88.10
2022-07-25T18:48:46.183Z,88.00
2022-07-25T18:51:13.579Z,88.70
2022-07-25T18:53:44.730Z,88.70
2022-07-25T18:56:14.679Z,88.50
2022-07-25T18:58:41.835Z,88.70
2022-07-25T19:01:09.658Z,89.00
2022-07-25T19:03:37.748Z,88.90
2022-07-25T19:06:05.438Z,89.20
2022-07-25T19:08:32.962Z,89.20
2022-07-25T19:11:01.557Z,89.00
2022-07-25T19:13:48.364Z,89.50
2022-07-25T19:16:16.758Z,89.00
2022-07-25T19:21:11.866Z,89.10
2022-07-25T19:23:39.022Z,90.00
2022-07-25T19:26:06.499Z,89.50
2022-07-25T19:28:35.108Z,90.00
2022-07-25T19:31:02.465Z,90.10
2022-07-25T19:33:35.011Z,89.80
2022-07-25T19:36:04.443Z,89.20
2022-07-25T19:38:31.960Z,89.50
2022-07-25T19:40:59.533Z,89.50
2022-07-25T19:43:26.916Z,89.20
2022-07-25T19:45:54.627Z,89.70
2022-07-25T19:48:24.070Z,89.70
2022-07-25T19:50:52.377Z,89.90
2022-07-25T19:53:19.531Z,90.10
2022-07-25T19:55:46.772Z,90.30
2022-07-25T19:58:13.967Z,90.30
2022-07-25T20:00:42.571Z,90.30
2022-07-25T20:03:09.566Z,90.40
2022-07-25T20:05:38.639Z,90.80
2022-07-25T20:08:06.077Z,90.90
2022-07-25T20:10:33.751Z,91.30
2022-07-25T20:15:29.368Z,92.20
2022-07-25T20:17:57.087Z,92.80
2022-07-25T20:20:25.448Z,92.90
2022-07-25T20:22:53.074Z,92.90
2022-07-25T20:25:20.662Z,93.20
2022-07-25T20:27:49.951Z,93.00
2022-07-25T20:30:18.229Z,93.40
2022-07-25T20:32:45.711Z,93.70
2022-07-25T20:35:13.339Z,94.00
2022-07-25T20:37:40.608Z,94.30
2022-07-25T20:40:09.581Z,94.70
2022-07-25T20:42:38.601Z,95.20
2022-07-25T20:45:07.370Z,95.60
2022-07-25T20:47:34.718Z,96.10
2022-07-25T20:50:02.507Z,96.50
2022-07-25T20:52:30.465Z,97.20
2022-07-25T20:54:57.667Z,97.20
2022-07-25T20:57:25.065Z,97.30
2022-07-25T20:59:52.232Z,97.50
2022-07-25T21:02:19.507Z,97.60
2022-07-25T21:04:48.638Z,97.50
2022-07-25T21:07:19.060Z,97.60
2022-07-25T21:09:46.322Z,97.50
2022-07-25T21:12:13.530Z,97.40
2022-07-25T21:14:40.716Z,97.80
2022-07-25T21:17:08.826Z,97.90
2022-07-25T21:19:35.968Z,97.90
2022-07-25T21:22:03.204Z,98.20
2022-07-25T21:24:30.601Z,98.40
2022-07-25T21:26:57.853Z,98.70
2022-07-25T21:29:25.052Z,98.90
2022-07-25T21:31:52.217Z,99.30
2022-07-25T21:34:21.804Z,99.70
2022-07-25T21:36:48.968Z,99.90
2022-07-25T21:39:16.738Z,99.90
2022-07-25T21:44:14.037Z,99.90
2022-07-25T21:46:41.305Z,99.90
2022-07-25T21:49:40.685Z,99.90
2022-07-25T21:52:13.891Z,99.90
2022-07-25T21:54:42.815Z,99.90
2022-07-25T21:57:13.717Z,99.90
2022-07-25T21:59:45.323Z,99.90
2022-07-25T22:02:13.167Z,99.90
2022-07-25T22:04:40.907Z,99.90
2022-07-25T22:07:08.687Z,99.90
2022-07-25T22:09:36.085Z,99.90
2022-07-25T22:12:04.557Z,99.90
2022-07-25T22:14:31.672Z,99.90
2022-07-25T22:19:26.565Z,99.90
2022-07-25T22:21:54.261Z,99.90
2022-07-25T22:24:21.401Z,99.90
2022-07-25T22:26:48.533Z,99.90
2022-07-25T22:29:15.673Z,99.90
2022-07-25T22:31:44.554Z,99.90
2022-07-25T22:34:11.831Z,99.90
2022-07-25T22:36:39.689Z,99.90
2022-07-25T22:39:07.186Z,99.90
2022-07-25T22:41:34.943Z,99.90
2022-07-25T22:44:02.444Z,99.90
2022-07-25T22:46:30.688Z,99.90
2022-07-25T22:51:26.853Z,99.90
2022-07-25T22:53:54.231Z,99.90
2022-07-25T22:56:21.933Z,99.90
2022-07-25T22:58:49.503Z,99.90
2022-07-25T23:01:20.576Z,99.90
2022-07-25T23:03:50.450Z,99.90
2022-07-25T23:06:19.834Z,99.90
2022-07-25T23:08:47.939Z,99.90
2022-07-25T23:11:15.298Z,99.90
2022-07-25T23:13:42.681Z,99.90
2022-07-25T23:16:10.699Z,99.90
2022-07-25T23:18:38.572Z,99.90
2022-07-25T23:21:06.624Z,99.90
2022-07-25T23:23:34.159Z,99.90
2022-07-25T23:26:01.474Z,99.90
2022-07-25T23:28:28.829Z,99.90
2022-07-25T23:30:56.145Z,99.90
2022-07-25T23:33:25.788Z,99.90
2022-07-25T23:35:54.227Z,99.90
2022-07-25T23:38:22.915Z,99.90
2022-07-25T23:40:50.349Z,99.90
2022-07-25T23:43:26.810Z,99.90
2022-07-25T23:46:05.577Z,99.90
2022-07-25T23:48:34.616Z,99.90
2022-07-25T23:51:02.026Z,99.90
2022-07-25T23:53:29.261Z,99.90
2022-07-25T23:55:56.435Z,99.90
2022-07-25T23:58:23.631Z,99.90
